Time;durP1;ratioP1;P1;durP2;ratioP2;P2;SDS_P1;SDS_P2;PMS_P1;PMS_P2;Temp;Humidity;BMP_temperature;BMP_pressure;BME280_temperature;BME280_humidity;BME280_pressure;Samples;Min_cycle;Max_cycle;Signal;HPM_P1;HPM_P2
2021/01/26 00:02:15;;;;;;;27.25;13.20;;;;;;;;;;1781205;80;21116;-84
2021/01/26 00:04:41;;;;;;;25.55;12.45;;;;;;;;;;1750388;80;21612;-84
2021/01/26 00:07:07;;;;;;;24.50;12.28;;;;;;;;;;1781099;80;21163;-87
2021/01/26 00:09:34;;;;;;;24.10;12.65;;;;;;;;;;1780682;80;21156;-86
2021/01/26 00:12:00;;;;;;;22.67;12.50;;;;;;;;;;1780786;80;21211;-84
2021/01/26 00:14:26;;;;;;;22.07;12.78;;;;;;;;;;1780762;80;21139;-85
2021/01/26 00:16:53;;;;;;;26.65;13.75;;;;;;;;;;1781007;80;21148;-84
2021/01/26 00:19:19;;;;;;;26.20;12.63;;;;;;;;;;1780939;80;21187;-87
2021/01/26 00:21:45;;;;;;;26.77;14.05;;;;;;;;;;1785328;80;21298;-85
2021/01/26 00:24:12;;;;;;;25.32;13.35;;;;;;;;;;1786676;80;21587;-85
2021/01/26 00:26:38;;;;;;;28.40;13.08;;;;;;;;;;1786823;80;21574;-86
2021/01/26 00:29:06;;;;;;;22.17;13.35;;;;;;;;;;1786881;80;21156;-83
2021/01/26 00:31:32;;;;;;;26.35;14.43;;;;;;;;;;1786500;80;21179;-82
2021/01/26 00:33:58;;;;;;;24.85;13.38;;;;;;;;;;1787108;80;21155;-86
2021/01/26 00:36:24;;;;;;;26.65;14.75;;;;;;;;;;1786736;80;21155;-86
2021/01/26 00:38:51;;;;;;;26.52;14.13;;;;;;;;;;1786514;80;21278;-86
2021/01/26 00:41:17;;;;;;;26.20;13.55;;;;;;;;;;1786567;80;21610;-85
2021/01/26 00:43:43;;;;;;;24.95;14.33;;;;;;;;;;1786754;80;21178;-85
2021/01/26 00:46:09;;;;;;;26.35;14.07;;;;;;;;;;1786538;80;21594;-84
2021/01/26 00:48:35;;;;;;;24.60;13.98;;;;;;;;;;1786619;80;21155;-87
2021/01/26 00:51:03;;;;;;;27.77;14.78;;;;;;;;;;1786602;80;21219;-87
2021/01/26 00:53:29;;;;;;;24.35;13.10;;;;;;;;;;1786634;80;21128;-85
2021/01/26 00:55:55;;;;;;;23.95;13.60;;;;;;;;;;1787028;80;21148;-86
2021/01/26 00:58:21;;;;;;;24.60;13.48;;;;;;;;;;1786488;80;21156;-84
2021/01/26 01:00:47;;;;;;;26.23;13.98;;;;;;;;;;1786583;80;21155;-86
2021/01/26 01:03:14;;;;;;;22.67;12.47;;;;;;;;;;1786858;80;21190;-86
2021/01/26 01:05:40;;;;;;;24.25;13.55;;;;;;;;;;1786557;80;21171;-85
2021/01/26 01:08:06;;;;;;;27.42;14.03;;;;;;;;;;1786621;80;21155;-86
2021/01/26 01:10:35;;;;;;;23.00;13.78;;;;;;;;;;1786667;80;21195;-86
2021/01/26 01:13:01;;;;;;;23.02;12.82;;;;;;;;;;1786819;80;21182;-86
2021/01/26 01:15:27;;;;;;;23.32;13.43;;;;;;;;;;1786504;80;21147;-86
2021/01/26 01:17:53;;;;;;;24.90;13.48;;;;;;;;;;1786584;80;21227;-86
2021/01/26 01:20:20;;;;;;;24.57;12.45;;;;;;;;;;1786634;80;21154;-86
2021/01/26 01:22:46;;;;;;;23.73;12.88;;;;;;;;;;1786537;80;21135;-86
2021/01/26 01:25:13;;;;;;;25.15;13.48;;;;;;;;;;1786754;80;21595;-85
2021/01/26 01:27:39;;;;;;;24.02;15.13;;;;;;;;;;1786824;80;21171;-85
2021/01/26 01:30:06;;;;;;;27.65;14.83;;;;;;;;;;1758399;80;21175;-86
2021/01/26 01:32:32;;;;;;;26.85;14.28;;;;;;;;;;1786801;80;21563;-87
2021/01/26 01:34:58;;;;;;;24.80;14.40;;;;;;;;;;1786830;80;21163;-84
2021/01/26 01:37:24;;;;;;;26.90;15.05;;;;;;;;;;1786826;80;21179;-84
2021/01/26 01:39:51;;;;;;;27.35;13.32;;;;;;;;;;1786697;80;21156;-84
2021/01/26 01:42:17;;;;;;;28.62;15.05;;;;;;;;;;1786765;80;21159;-85
2021/01/26 01:44:43;;;;;;;30.43;14.60;;;;;;;;;;1786695;80;21160;-85
2021/01/26 01:47:10;;;;;;;28.60;15.18;;;;;;;;;;1786760;80;21570;-85
2021/01/26 01:49:38;;;;;;;28.40;15.25;;;;;;;;;;1786810;80;21116;-85
2021/01/26 01:52:05;;;;;;;32.03;15.53;;;;;;;;;;1786760;80;21162;-85
2021/01/26 01:54:37;;;;;;;31.00;15.88;;;;;;;;;;1786760;80;21156;-85
2021/01/26 01:57:05;;;;;;;33.95;15.93;;;;;;;;;;1786828;80;21132;-85
2021/01/26 01:59:33;;;;;;;28.40;15.10;;;;;;;;;;1786799;80;21162;-84
2021/01/26 02:02:01;;;;;;;33.23;15.98;;;;;;;;;;1786914;80;21155;-84
2021/01/26 02:04:27;;;;;;;29.92;15.30;;;;;;;;;;1786887;80;21583;-84
2021/01/26 02:06:54;;;;;;;30.10;15.25;;;;;;;;;;1786898;80;21151;-84
2021/01/26 02:09:23;;;;;;;30.70;14.98;;;;;;;;;;1786966;80;21158;-85
2021/01/26 02:11:49;;;;;;;26.23;13.93;;;;;;;;;;1787065;80;21155;-84
2021/01/26 02:14:16;;;;;;;24.25;13.25;;;;;;;;;;1786867;80;21199;-84
2021/01/26 02:16:47;;;;;;;25.72;13.18;;;;;;;;;;1786860;80;21650;-84
2021/01/26 02:19:27;;;;;;;25.77;12.88;;;;;;;;;;1785504;79;21557;-84
2021/01/26 02:22:11;;;;;;;21.52;12.75;;;;;;;;;;1783515;79;21149;-84
2021/01/26 02:24:42;;;;;;;22.93;12.37;;;;;;;;;;1781233;80;21150;-85
2021/01/26 02:27:26;;;;;;;23.42;12.43;;;;;;;;;;1781229;80;21136;-85
2021/01/26 02:30:09;;;;;;;22.13;12.28;;;;;;;;;;1781385;80;21551;-86
2021/01/26 02:32:49;;;;;;;17.17;7.97;;;;;;;;;;1779431;80;21725;-86
2021/01/26 02:35:31;;;;;;;23.80;11.57;;;;;;;;;;1781017;80;21139;-86
2021/01/26 02:38:05;;;;;;;24.50;12.23;;;;;;;;;;1780178;80;21176;-87
2021/01/26 02:40:33;;;;;;;25.72;13.68;;;;;;;;;;1781024;80;21568;-88
2021/01/26 02:43:01;;;;;;;23.77;12.23;;;;;;;;;;1781090;80;21567;-85
2021/01/26 02:45:34;;;;;;;22.80;12.50;;;;;;;;;;1781081;80;21170;-85
2021/01/26 02:48:02;;;;;;;24.63;13.05;;;;;;;;;;1781212;80;21155;-84
2021/01/26 02:50:30;;;;;;;23.87;13.20;;;;;;;;;;1779884;80;21178;-83
2021/01/26 02:52:58;;;;;;;24.87;13.32;;;;;;;;;;1780972;80;21140;-84
2021/01/26 02:55:38;;;;;;;22.50;12.40;;;;;;;;;;1780964;80;21163;-83
2021/01/26 02:58:06;;;;;;;23.38;12.73;;;;;;;;;;1780897;80;21147;-84
2021/01/26 03:00:33;;;;;;;29.42;13.90;;;;;;;;;;1781063;80;21627;-84
2021/01/26 03:03:04;;;;;;;24.05;12.35;;;;;;;;;;1780966;80;21148;-84
2021/01/26 03:05:48;;;;;;;23.62;12.95;;;;;;;;;;1781071;80;21572;-85
2021/01/26 03:08:14;;;;;;;;;;;;;;;;;;1783899;80;21148;-85
2021/01/26 03:10:42;;;;;;;19.82;11.80;;;;;;;;;;1781212;80;20490;-84
2021/01/26 03:13:09;;;;;;;27.05;13.55;;;;;;;;;;1781067;80;21168;-84
2021/01/26 03:15:36;;;;;;;24.75;12.93;;;;;;;;;;1781055;80;21154;-84
2021/01/26 03:18:04;;;;;;;20.97;12.15;;;;;;;;;;1781026;80;21179;-84
2021/01/26 03:20:43;;;;;;;24.37;13.70;;;;;;;;;;1781083;80;21160;-84
2021/01/26 03:23:14;;;;;;;24.72;12.70;;;;;;;;;;1780874;79;21195;-81
2021/01/26 03:25:41;;;;;;;24.50;12.70;;;;;;;;;;1779768;80;21163;-82
2021/01/26 03:28:08;;;;;;;24.37;12.70;;;;;;;;;;1781022;80;21563;-82
2021/01/26 03:30:35;;;;;;;23.20;12.25;;;;;;;;;;1780894;80;21187;-82
2021/01/26 03:33:02;;;;;;;21.77;11.57;;;;;;;;;;1781088;80;21193;-82
2021/01/26 03:35:29;;;;;;;23.10;12.15;;;;;;;;;;1750644;80;21155;-82
2021/01/26 03:37:57;;;;;;;23.05;12.10;;;;;;;;;;1781152;80;21147;-86
2021/01/26 03:40:23;;;;;;;24.63;11.25;;;;;;;;;;1781019;80;21297;-84
2021/01/26 03:42:49;;;;;;;23.52;12.43;;;;;;;;;;1781116;80;21584;-85
2021/01/26 03:45:15;;;;;;;24.57;11.83;;;;;;;;;;1780978;80;21282;-83
2021/01/26 03:47:49;;;;;;;24.82;12.63;;;;;;;;;;1780951;80;21147;-84
2021/01/26 03:50:26;;;;;;;26.20;13.15;;;;;;;;;;1780199;80;21595;-84
2021/01/26 03:52:54;;;;;;;24.95;13.65;;;;;;;;;;1781161;80;21159;-84
2021/01/26 03:55:39;;;;;;;23.47;12.15;;;;;;;;;;1781170;80;21171;-83
2021/01/26 03:58:05;;;;;;;;;;;;;;;;;;1783784;80;21584;-84
2021/01/26 04:00:51;;;;;;;25.05;13.58;;;;;;;;;;1781808;80;20442;-84
2021/01/26 04:03:22;;;;;;;23.90;12.78;;;;;;;;;;1784916;80;21686;-84
2021/01/26 04:05:57;;;;;;;25.25;13.58;;;;;;;;;;1785527;80;21153;-85
2021/01/26 04:08:26;;;;;;;22.05;11.55;;;;;;;;;;1785314;80;21181;-85
2021/01/26 04:10:53;;;;;;;22.95;11.83;;;;;;;;;;1777194;80;21165;-84
2021/01/26 04:13:21;;;;;;;22.22;12.05;;;;;;;;;;1785609;80;21170;-83
2021/01/26 04:15:49;;;;;;;24.55;12.98;;;;;;;;;;1785716;80;21165;-92
2021/01/26 04:18:15;;;;;;;24.55;12.68;;;;;;;;;;1786132;80;21557;-91
2021/01/26 04:20:41;;;;;;;22.02;11.35;;;;;;;;;;1757526;80;21153;-90
2021/01/26 04:23:07;;;;;;;19.20;11.08;;;;;;;;;;1788190;80;21365;-89
2021/01/26 04:25:35;;;;;;;17.73;10.00;;;;;;;;;;1787166;80;21149;-83
2021/01/26 04:28:03;;;;;;;19.23;9.95;;;;;;;;;;1786086;80;21177;-84
2021/01/26 04:30:29;;;;;;;18.87;10.28;;;;;;;;;;1785937;80;21157;-84
2021/01/26 04:32:57;;;;;;;23.65;10.85;;;;;;;;;;1786504;80;21141;-84
2021/01/26 04:35:23;;;;;;;20.70;11.60;;;;;;;;;;1785514;80;21161;-84
2021/01/26 04:37:49;;;;;;;18.40;10.58;;;;;;;;;;1786816;80;21276;-84
2021/01/26 04:40:15;;;;;;;19.30;11.10;;;;;;;;;;1786677;80;21152;-83
2021/01/26 04:42:42;;;;;;;24.50;10.63;;;;;;;;;;1786169;80;21133;-84
2021/01/26 04:45:16;;;;;;;21.48;11.38;;;;;;;;;;1786396;80;21704;-85
2021/01/26 04:47:50;;;;;;;20.02;11.03;;;;;;;;;;1786605;80;21134;-84
2021/01/26 04:50:23;;;;;;;20.27;11.05;;;;;;;;;;1787140;80;21557;-85
2021/01/26 04:52:51;;;;;;;21.23;11.73;;;;;;;;;;1787178;80;21581;-84
2021/01/26 04:55:38;;;;;;;20.05;11.12;;;;;;;;;;1786982;80;21165;-85
2021/01/26 04:58:09;;;;;;;22.17;10.75;;;;;;;;;;1787169;80;21274;-84
2021/01/26 05:00:36;;;;;;;21.62;11.65;;;;;;;;;;1787459;80;21319;-84
2021/01/26 05:03:10;;;;;;;18.75;11.38;;;;;;;;;;1788111;80;21157;-86
2021/01/26 05:05:36;;;;;;;23.45;11.53;;;;;;;;;;1788554;80;21581;-85
2021/01/26 05:08:04;;;;;;;23.90;11.57;;;;;;;;;;1757760;80;21153;-87
2021/01/26 05:10:32;;;;;;;25.32;13.78;;;;;;;;;;1788082;80;21134;-84
2021/01/26 05:13:00;;;;;;;24.45;11.78;;;;;;;;;;1787439;80;21125;-84
2021/01/26 05:15:28;;;;;;;26.80;12.93;;;;;;;;;;1786464;80;21582;-84
2021/01/26 05:17:56;;;;;;;23.65;13.30;;;;;;;;;;1756611;80;21165;-84
2021/01/26 05:20:24;;;;;;;21.77;13.15;;;;;;;;;;1786451;80;21126;-86
2021/01/26 05:23:01;;;;;;;25.72;13.22;;;;;;;;;;1787340;80;21263;-86
2021/01/26 05:25:27;;;;;;;27.77;13.88;;;;;;;;;;1764161;80;21181;-85
2021/01/26 05:27:53;;;;;;;32.20;16.25;;;;;;;;;;1785451;80;21271;-83
2021/01/26 05:30:25;;;;;;;28.47;15.20;;;;;;;;;;1785360;80;21142;-84
2021/01/26 05:32:49;;;;;;;32.70;17.00;;;;;;;;;;1785293;80;21172;-86
2021/01/26 05:35:16;;;;;;;29.87;16.65;;;;;;;;;;1785712;80;21162;-85
2021/01/26 05:37:42;;;;;;;32.03;16.48;;;;;;;;;;1785700;80;21570;-82
2021/01/26 05:40:15;;;;;;;29.18;16.02;;;;;;;;;;1785620;80;21165;-82
2021/01/26 05:42:48;;;;;;;31.12;16.32;;;;;;;;;;1785733;80;21565;-83
2021/01/26 05:45:17;;;;;;;28.27;15.83;;;;;;;;;;1785717;80;21165;-82
2021/01/26 05:47:43;;;;;;;27.13;15.95;;;;;;;;;;1784881;80;21149;-82
2021/01/26 05:50:22;;;;;;;26.87;15.88;;;;;;;;;;1785583;80;21610;-83
2021/01/26 05:52:49;;;;;;;28.50;14.73;;;;;;;;;;1785516;80;21122;-84
2021/01/26 05:55:21;;;;;;;30.77;15.28;;;;;;;;;;1785871;80;21234;-83
2021/01/26 05:57:48;;;;;;;26.90;15.53;;;;;;;;;;1785728;80;21166;-83
2021/01/26 06:00:22;;;;;;;34.33;16.87;;;;;;;;;;1785566;80;21181;-83
2021/01/26 06:02:48;;;;;;;31.12;17.12;;;;;;;;;;1785818;80;21185;-83
2021/01/26 06:05:18;;;;;;;31.60;16.60;;;;;;;;;;1785645;80;21169;-84
2021/01/26 06:07:44;;;;;;;32.42;17.60;;;;;;;;;;1785687;80;21561;-83
2021/01/26 06:10:17;;;;;;;33.05;17.30;;;;;;;;;;1785645;80;21164;-83
2021/01/26 06:12:45;;;;;;;34.18;17.85;;;;;;;;;;1785499;80;21167;-82
2021/01/26 06:15:11;;;;;;;24.40;14.55;;;;;;;;;;1784416;80;21144;-83
2021/01/26 06:17:37;;;;;;;28.65;15.95;;;;;;;;;;1785706;80;21145;-84
2021/01/26 06:20:08;;;;;;;30.75;16.30;;;;;;;;;;1785678;80;21305;-83
2021/01/26 06:22:34;;;;;;;29.25;15.65;;;;;;;;;;1784870;79;21129;-84
2021/01/26 06:25:02;;;;;;;32.73;17.35;;;;;;;;;;1786068;80;21161;-85
2021/01/26 06:27:34;;;;;;;32.83;16.62;;;;;;;;;;1785570;80;21614;-83
2021/01/26 06:30:08;;;;;;;28.60;16.05;;;;;;;;;;1785527;80;21145;-83
2021/01/26 06:32:46;;;;;;;27.93;15.05;;;;;;;;;;1785804;80;21137;-83
2021/01/26 06:35:30;;;;;;;28.83;14.75;;;;;;;;;;1785564;80;21158;-85
2021/01/26 06:38:16;;;;;;;30.20;13.28;;;;;;;;;;1785677;80;21160;-84
2021/01/26 06:40:47;;;;;;;25.12;13.68;;;;;;;;;;1785496;80;21157;-84
2021/01/26 06:43:15;;;;;;;26.02;13.48;;;;;;;;;;1785592;80;21165;-84
2021/01/26 06:45:43;;;;;;;28.85;14.80;;;;;;;;;;1784900;80;21106;-85
2021/01/26 06:48:17;;;;;;;22.42;12.00;;;;;;;;;;1785092;80;21180;-84
2021/01/26 06:50:48;;;;;;;22.55;13.20;;;;;;;;;;1784315;80;21189;-84
2021/01/26 06:53:16;;;;;;;23.62;11.57;;;;;;;;;;1785401;80;21589;-82
2021/01/26 06:55:50;;;;;;;23.18;12.82;;;;;;;;;;1785121;80;21218;-82
2021/01/26 06:58:27;;;;;;;23.87;12.58;;;;;;;;;;1785858;80;21165;-83
2021/01/26 07:00:55;;;;;;;18.32;9.78;;;;;;;;;;1785220;80;21744;-84
2021/01/26 07:03:39;;;;;;;18.85;9.78;;;;;;;;;;1785590;80;21141;-83
2021/01/26 07:06:19;;;;;;;15.65;8.80;;;;;;;;;;1785080;80;21141;-83
2021/01/26 07:08:47;;;;;;;20.05;9.93;;;;;;;;;;1785271;80;21558;-84
2021/01/26 07:11:20;;;;;;;16.57;8.93;;;;;;;;;;1785652;80;21165;-84
2021/01/26 07:13:48;;;;;;;17.87;8.95;;;;;;;;;;1784347;80;21161;-86
2021/01/26 07:16:59;;;;;;;;;;;;;;;;;;;;;
2021/01/26 07:19:17;;;;;;;14.65;7.70;;;;;;;;;;1750121;80;21145;-86
2021/01/26 07:21:54;;;;;;;14.78;8.28;;;;;;;;;;1785379;80;21149;-86
2021/01/26 07:24:32;;;;;;;18.00;8.70;;;;;;;;;;1788280;80;21181;-86
2021/01/26 07:27:16;;;;;;;14.90;7.95;;;;;;;;;;1789025;80;21576;-83
2021/01/26 07:29:42;;;;;;;;;;;;;;;;;;1791566;80;21152;-87
2021/01/26 07:32:16;;;;;;;17.40;9.20;;;;;;;;;;1789165;79;20147;-86
2021/01/26 07:34:59;;;;;;;19.77;10.13;;;;;;;;;;1763097;80;21176;-85
2021/01/26 07:37:30;;;;;;;20.30;11.12;;;;;;;;;;1742578;81;21684;-87
2021/01/26 07:40:06;;;;;;;17.15;9.70;;;;;;;;;;1727398;82;21202;-86
2021/01/26 07:42:37;;;;;;;14.50;8.40;;;;;;;;;;1743448;82;21178;-86
2021/01/26 07:45:07;;;;;;;19.10;9.60;;;;;;;;;;1743252;82;21159;-82
2021/01/26 07:47:43;;;;;;;16.97;9.68;;;;;;;;;;1743289;81;21610;-80
2021/01/26 07:50:22;;;;;;;17.17;9.03;;;;;;;;;;1743500;82;21750;-83
2021/01/26 07:52:48;;;;;;;19.40;9.75;;;;;;;;;;1729458;81;21181;-81
2021/01/26 07:55:30;;;;;;;20.68;10.85;;;;;;;;;;1713213;84;21138;-81
2021/01/26 07:57:57;;;;;;;13.10;7.20;;;;;;;;;;1713223;84;21187;-81
2021/01/26 08:00:25;;;;;;;17.85;8.88;;;;;;;;;;1713189;82;21177;-81
2021/01/26 08:02:53;;;;;;;19.05;10.28;;;;;;;;;;1713457;84;21157;-83
2021/01/26 08:05:20;;;;;;;20.82;11.10;;;;;;;;;;1708680;82;21185;-84
2021/01/26 08:07:52;;;;;;;22.42;10.78;;;;;;;;;;1707769;83;21291;-84
2021/01/26 08:10:26;;;;;;;21.27;10.43;;;;;;;;;;1713227;84;21577;-84
2021/01/26 08:12:52;;;;;;;22.48;11.20;;;;;;;;;;1713336;83;21185;-85
2021/01/26 08:15:22;;;;;;;20.25;10.25;;;;;;;;;;1713360;84;21570;-84
2021/01/26 08:17:48;;;;;;;20.15;10.35;;;;;;;;;;1712399;82;21177;-84
2021/01/26 08:20:22;;;;;;;22.62;10.70;;;;;;;;;;1713244;84;21573;-84
2021/01/26 08:22:59;;;;;;;16.52;9.20;;;;;;;;;;1732456;82;21164;-84
2021/01/26 08:25:31;;;;;;;21.05;10.70;;;;;;;;;;1692343;84;21591;-83
2021/01/26 08:28:00;;;;;;;21.23;10.18;;;;;;;;;;1717971;83;21192;-85
2021/01/26 08:30:48;;;;;;;22.20;10.58;;;;;;;;;;1723597;83;21171;-84
2021/01/26 08:33:16;;;;;;;23.67;10.55;;;;;;;;;;1734276;83;21583;-83
2021/01/26 08:35:43;;;;;;;18.12;9.45;;;;;;;;;;1734420;83;21191;-84
2021/01/26 08:38:10;;;;;;;21.68;10.60;;;;;;;;;;1734352;83;21199;-85
2021/01/26 08:40:38;;;;;;;20.27;9.98;;;;;;;;;;1734293;83;21176;-82
2021/01/26 08:43:04;;;;;;;19.50;9.70;;;;;;;;;;1734237;83;21207;-84
2021/01/26 08:45:33;;;;;;;19.82;10.68;;;;;;;;;;1734315;83;21156;-84
2021/01/26 08:48:01;;;;;;;14.63;8.65;;;;;;;;;;1734258;83;21274;-84
2021/01/26 08:50:34;;;;;;;18.77;9.73;;;;;;;;;;1730462;83;21195;-84
2021/01/26 08:53:20;;;;;;;21.35;9.30;;;;;;;;;;1734333;83;21313;-83
2021/01/26 08:55:49;;;;;;;16.52;7.53;;;;;;;;;;1732387;83;21310;-84
2021/01/26 08:58:34;;;;;;;15.70;7.90;;;;;;;;;;1708597;83;21608;-83
2021/01/26 09:01:00;;;;;;;17.15;8.43;;;;;;;;;;1734382;83;21167;-83
2021/01/26 09:03:33;;;;;;;18.48;8.80;;;;;;;;;;1734343;83;21168;-83
2021/01/26 09:06:01;;;;;;;20.05;9.10;;;;;;;;;;1734439;83;21293;-83
2021/01/26 09:08:42;;;;;;;15.08;9.03;;;;;;;;;;1734271;83;21607;-83
2021/01/26 09:11:15;;;;;;;17.77;9.48;;;;;;;;;;1734360;83;21156;-84
2021/01/26 09:13:42;;;;;;;20.80;10.25;;;;;;;;;;1734585;83;21301;-83
2021/01/26 09:16:24;;;;;;;18.62;10.40;;;;;;;;;;1734189;83;21183;-84
2021/01/26 09:18:59;;;;;;;19.95;10.32;;;;;;;;;;1733999;83;21143;-84
2021/01/26 09:21:25;;;;;;;17.27;9.65;;;;;;;;;;1709536;83;21135;-83
2021/01/26 09:23:53;;;;;;;18.50;9.95;;;;;;;;;;1712230;82;21166;-83
2021/01/26 09:26:19;;;;;;;22.45;9.73;;;;;;;;;;1740351;82;21208;-85
2021/01/26 09:28:48;;;;;;;16.15;8.85;;;;;;;;;;1740426;82;21167;-83
2021/01/26 09:31:14;;;;;;;19.30;8.58;;;;;;;;;;1740416;82;21187;-83
2021/01/26 09:33:40;;;;;;;16.10;8.95;;;;;;;;;;1740274;82;21167;-83
2021/01/26 09:36:09;;;;;;;17.55;9.25;;;;;;;;;;1740305;82;21599;-83
2021/01/26 09:38:43;;;;;;;13.58;7.30;;;;;;;;;;1740233;82;21645;-84
2021/01/26 09:41:14;;;;;;;14.35;7.53;;;;;;;;;;1740454;82;21179;-84
2021/01/26 09:43:42;;;;;;;15.63;7.47;;;;;;;;;;1740298;82;21276;-84
2021/01/26 09:46:10;;;;;;;15.85;7.42;;;;;;;;;;1740333;82;21203;-84
2021/01/26 09:48:37;;;;;;;15.83;7.97;;;;;;;;;;1740198;82;21131;-84
2021/01/26 09:51:11;;;;;;;14.85;7.62;;;;;;;;;;1740256;82;21301;-85
2021/01/26 09:53:37;;;;;;;15.78;7.22;;;;;;;;;;1740470;82;21183;-84
2021/01/26 09:56:05;;;;;;;17.25;8.15;;;;;;;;;;1740217;82;21340;-83
2021/01/26 09:58:31;;;;;;;15.10;7.67;;;;;;;;;;1739088;82;21312;-84
2021/01/26 10:00:57;;;;;;;13.68;7.60;;;;;;;;;;1740241;82;21163;-83
2021/01/26 10:03:23;;;;;;;16.30;6.97;;;;;;;;;;1740309;82;21616;-83
2021/01/26 10:05:52;;;;;;;13.43;7.22;;;;;;;;;;1740229;82;21313;-83
2021/01/26 10:08:22;;;;;;;10.95;6.45;;;;;;;;;;1740203;82;21182;-84
2021/01/26 10:12:18;;;;;;;11.75;6.20;;;;;;;;;;1780144;79;22936;-81
2021/01/26 10:15:03;;;;;;;12.88;7.33;;;;;;;;;;1753847;82;21218;-80
2021/01/26 10:17:28;;;;;;;;;;;;;;;;;;1756699;82;21167;-81
2021/01/26 10:19:58;;;;;;;12.60;6.40;;;;;;;;;;1753618;82;20146;-80
2021/01/26 10:22:25;;;;;;;13.88;6.97;;;;;;;;;;1753935;82;21139;-80
2021/01/26 10:24:51;;;;;;;13.43;7.20;;;;;;;;;;1753665;82;21159;-80
2021/01/26 10:27:21;;;;;;;14.38;7.70;;;;;;;;;;1753567;82;21219;-80
2021/01/26 10:29:48;;;;;;;15.18;7.97;;;;;;;;;;1753755;82;21187;-81
2021/01/26 10:32:16;;;;;;;13.28;6.78;;;;;;;;;;1751754;82;21616;-81
2021/01/26 10:34:46;;;;;;;10.90;5.67;;;;;;;;;;1747393;82;21643;-82
2021/01/26 10:37:17;;;;;;;10.80;6.22;;;;;;;;;;1751314;82;21187;-81
2021/01/26 10:40:42;;;;;;;10.30;6.00;;;;;;;;;;1819855;79;23236;-81
2021/01/26 10:43:10;;;;;;;12.05;5.37;;;;;;;;;;1793410;80;21745;-82
2021/01/26 10:45:41;;;;;;;10.05;6.20;;;;;;;;;;1793119;80;21123;-78
2021/01/26 10:48:08;;;;;;;15.18;6.75;;;;;;;;;;1793276;80;21276;-79
2021/01/26 10:50:34;;;;;;;9.05;5.42;;;;;;;;;;1793185;80;21539;-78
2021/01/26 10:53:00;;;;;;;9.90;5.22;;;;;;;;;;1793142;80;21130;-79
2021/01/26 10:55:26;;;;;;;8.65;4.92;;;;;;;;;;1793389;80;21281;-79
2021/01/26 10:57:54;;;;;;;10.05;6.05;;;;;;;;;;1793259;80;21610;-78
2021/01/26 11:00:28;;;;;;;11.15;6.20;;;;;;;;;;1792976;80;21146;-78
2021/01/26 11:02:55;;;;;;;10.40;6.33;;;;;;;;;;1793760;80;21519;-80
2021/01/26 11:05:21;;;;;;;10.93;6.67;;;;;;;;;;1793121;80;21591;-78
2021/01/26 11:07:48;;;;;;;9.23;5.17;;;;;;;;;;1793283;80;21296;-78
2021/01/26 11:10:14;;;;;;;10.53;5.55;;;;;;;;;;1792439;80;21174;-79
2021/01/26 11:12:41;;;;;;;9.28;5.12;;;;;;;;;;1793359;79;21138;-79
2021/01/26 11:15:12;;;;;;;9.40;5.70;;;;;;;;;;1793171;80;21579;-79
2021/01/26 11:17:38;;;;;;;10.38;5.33;;;;;;;;;;1793265;80;21387;-79
2021/01/26 11:20:06;;;;;;;10.65;5.22;;;;;;;;;;1793264;80;21578;-79
2021/01/26 11:22:32;;;;;;;9.25;5.83;;;;;;;;;;1793400;80;21134;-79
2021/01/26 11:24:59;;;;;;;8.80;5.17;;;;;;;;;;1793416;80;21159;-81
2021/01/26 11:27:25;;;;;;;7.70;4.67;;;;;;;;;;1793083;79;21115;-79
2021/01/26 11:29:52;;;;;;;8.88;5.47;;;;;;;;;;1793177;80;21146;-78
2021/01/26 11:32:19;;;;;;;10.60;5.72;;;;;;;;;;1793609;80;21158;-78
2021/01/26 11:34:48;;;;;;;9.53;5.40;;;;;;;;;;1793289;79;21170;-79
2021/01/26 11:37:14;;;;;;;11.53;7.12;;;;;;;;;;1793297;80;21134;-79
2021/01/26 11:39:40;;;;;;;12.07;6.10;;;;;;;;;;1792990;80;21123;-80
2021/01/26 11:42:07;;;;;;;9.83;5.83;;;;;;;;;;1793363;80;21292;-79
2021/01/26 11:44:34;;;;;;;11.50;6.87;;;;;;;;;;1793494;80;21158;-79
2021/01/26 11:47:00;;;;;;;16.73;7.37;;;;;;;;;;1793434;80;21115;-80
2021/01/26 11:49:27;;;;;;;13.43;6.10;;;;;;;;;;1793605;80;21181;-79
2021/01/26 11:51:53;;;;;;;10.53;6.83;;;;;;;;;;1792003;80;21629;-79
2021/01/26 11:54:19;;;;;;;9.93;6.05;;;;;;;;;;1792794;80;21162;-79
2021/01/26 11:56:46;;;;;;;11.63;6.12;;;;;;;;;;1792761;80;21146;-78
2021/01/26 11:59:12;;;;;;;11.45;7.03;;;;;;;;;;1792981;80;21574;-79
2021/01/26 12:01:38;;;;;;;13.83;6.05;;;;;;;;;;1793132;80;21130;-79
2021/01/26 12:04:05;;;;;;;10.93;6.00;;;;;;;;;;1792790;80;21170;-79
2021/01/26 12:06:31;;;;;;;12.10;6.58;;;;;;;;;;1792792;80;21614;-79
2021/01/26 12:08:57;;;;;;;12.35;6.95;;;;;;;;;;1792706;80;21134;-78
2021/01/26 12:11:23;;;;;;;14.07;7.17;;;;;;;;;;1792825;80;21198;-80
2021/01/26 12:13:49;;;;;;;13.18;7.12;;;;;;;;;;1792837;80;21142;-80
2021/01/26 12:16:16;;;;;;;13.18;6.62;;;;;;;;;;1792880;80;21177;-79
2021/01/26 12:18:42;;;;;;;13.28;6.65;;;;;;;;;;1793069;80;21131;-79
2021/01/26 12:21:08;;;;;;;9.73;5.90;;;;;;;;;;1792547;80;21103;-78
2021/01/26 12:23:35;;;;;;;12.40;5.97;;;;;;;;;;1788927;80;21135;-79
2021/01/26 12:26:01;;;;;;;10.05;5.92;;;;;;;;;;1777575;81;21130;-78
2021/01/26 12:28:27;;;;;;;10.90;5.85;;;;;;;;;;1738158;82;21137;-79
2021/01/26 12:30:53;;;;;;;11.55;6.05;;;;;;;;;;1726036;83;21662;-79
2021/01/26 12:33:20;;;;;;;13.10;6.17;;;;;;;;;;1738424;82;21190;-80
2021/01/26 12:35:46;;;;;;;8.98;5.33;;;;;;;;;;1725969;82;21168;-77
2021/01/26 12:38:13;;;;;;;13.90;6.58;;;;;;;;;;1738169;82;21157;-79
2021/01/26 12:40:39;;;;;;;12.58;6.37;;;;;;;;;;1723422;81;21156;-79
2021/01/26 12:43:07;;;;;;;9.68;5.53;;;;;;;;;;1768940;81;21130;-79
2021/01/26 12:45:33;;;;;;;10.48;5.55;;;;;;;;;;1769142;81;21266;-79
2021/01/26 12:48:00;;;;;;;11.20;5.42;;;;;;;;;;1769929;81;21133;-78
2021/01/26 12:50:27;;;;;;;15.45;6.28;;;;;;;;;;1749728;81;21518;-79
2021/01/26 12:52:54;;;;;;;12.55;6.35;;;;;;;;;;1746707;82;21124;-79
2021/01/26 12:55:21;;;;;;;13.00;6.78;;;;;;;;;;1746607;82;21163;-78
2021/01/26 12:57:47;;;;;;;9.98;5.67;;;;;;;;;;1746576;82;21619;-79
2021/01/26 13:00:14;;;;;;;12.37;5.60;;;;;;;;;;1746782;82;21159;-79
2021/01/26 13:02:41;;;;;;;11.03;6.28;;;;;;;;;;1746593;82;21176;-79
2021/01/26 13:05:08;;;;;;;12.73;6.55;;;;;;;;;;1745934;82;21187;-79
2021/01/26 13:07:34;;;;;;;11.03;5.35;;;;;;;;;;1745149;82;21642;-80
2021/01/26 13:10:00;;;;;;;8.65;4.95;;;;;;;;;;1746169;82;21156;-79
2021/01/26 13:12:26;;;;;;;9.48;5.53;;;;;;;;;;1746653;82;21160;-79
2021/01/26 13:14:53;;;;;;;9.45;5.22;;;;;;;;;;1748318;81;21163;-79
2021/01/26 13:17:19;;;;;;;9.55;4.90;;;;;;;;;;1756774;81;21147;-79
2021/01/26 13:19:45;;;;;;;11.22;5.53;;;;;;;;;;1779067;81;21513;-80
2021/01/26 13:22:11;;;;;;;7.22;4.37;;;;;;;;;;1778835;81;21179;-79
2021/01/26 13:24:43;;;;;;;8.38;4.08;;;;;;;;;;1778367;81;21155;-79
2021/01/26 13:27:09;;;;;;;7.20;3.50;;;;;;;;;;1766462;81;21166;-80
2021/01/26 13:29:36;;;;;;;7.35;4.60;;;;;;;;;;1737577;82;21152;-80
2021/01/26 13:32:04;;;;;;;7.08;4.53;;;;;;;;;;1737715;82;21164;-80
2021/01/26 13:34:30;;;;;;;8.70;4.15;;;;;;;;;;1737842;82;21228;-79
2021/01/26 13:36:56;;;;;;;10.95;4.50;;;;;;;;;;1737722;82;21164;-78
2021/01/26 13:39:22;;;;;;;8.35;5.00;;;;;;;;;;1756683;81;21186;-77
2021/01/26 13:41:51;;;;;;;11.25;4.87;;;;;;;;;;1768222;81;21149;-77
2021/01/26 13:44:17;;;;;;;8.48;4.00;;;;;;;;;;1768089;80;21145;-78
2021/01/26 13:46:43;;;;;;;8.80;4.70;;;;;;;;;;1783703;79;21254;-79
2021/01/26 13:49:09;;;;;;;7.28;4.75;;;;;;;;;;1773793;81;21176;-81
2021/01/26 13:51:36;;;;;;;8.88;4.62;;;;;;;;;;1773039;81;21159;-77
2021/01/26 13:54:03;;;;;;;7.70;4.53;;;;;;;;;;1772765;81;21208;-77
2021/01/26 13:56:29;;;;;;;9.88;4.65;;;;;;;;;;1772630;81;21165;-78
2021/01/26 13:58:55;;;;;;;7.72;3.75;;;;;;;;;;1772967;81;21606;-78
2021/01/26 14:01:21;;;;;;;6.87;3.80;;;;;;;;;;1772982;81;21306;-77
2021/01/26 14:03:47;;;;;;;8.03;4.08;;;;;;;;;;1773294;81;21153;-77
2021/01/26 14:06:14;;;;;;;7.70;4.12;;;;;;;;;;1772705;81;21160;-77
2021/01/26 14:08:40;;;;;;;11.03;5.10;;;;;;;;;;1772548;81;21160;-77
2021/01/26 14:11:07;;;;;;;9.45;5.67;;;;;;;;;;1774662;80;21142;-77
2021/01/26 14:13:33;;;;;;;8.90;5.08;;;;;;;;;;1778855;81;21540;-78
2021/01/26 14:15:59;;;;;;;8.60;4.45;;;;;;;;;;1779093;81;21646;-77
2021/01/26 14:18:26;;;;;;;7.67;3.87;;;;;;;;;;1779216;81;21148;-78
2021/01/26 14:20:52;;;;;;;6.78;4.20;;;;;;;;;;1778950;81;21718;-77
2021/01/26 14:23:18;;;;;;;10.40;3.55;;;;;;;;;;1779253;80;21207;-77
2021/01/26 14:25:44;;;;;;;7.97;3.90;;;;;;;;;;1779273;81;21167;-78
2021/01/26 14:28:11;;;;;;;10.13;5.03;;;;;;;;;;1779038;81;21271;-77
2021/01/26 14:30:37;;;;;;;9.95;5.33;;;;;;;;;;1778975;81;21584;-78
2021/01/26 14:33:03;;;;;;;10.75;5.12;;;;;;;;;;1778846;81;21136;-79
2021/01/26 14:35:30;;;;;;;9.35;4.58;;;;;;;;;;1778958;81;21176;-79
2021/01/26 14:37:57;;;;;;;10.80;4.95;;;;;;;;;;1778924;81;21290;-78
2021/01/26 14:40:23;;;;;;;13.35;5.22;;;;;;;;;;1783582;80;21100;-79